sensor_id;sensor_type;location;lat;lon;timestamp;pressure;altitude;pressure_sealevel;temperature;humidity
39613;BME280;25303;48.896;13.342;2023-04-07T00:00:04;92802.41;;;2.31;44.09
39613;BME280;25303;48.896;13.342;2023-04-07T00:02:52;92807.00;;;2.26;43.79
39613;BME280;25303;48.896;13.342;2023-04-07T00:05:35;92802.16;;;2.23;44.42
39613;BME280;25303;48.896;13.342;2023-04-07T00:08:19;92798.78;;;2.22;44.45
39613;BME280;25303;48.896;13.342;2023-04-07T00:11:02;92799.59;;;2.23;44.67
39613;BME280;25303;48.896;13.342;2023-04-07T00:13:45;92795.44;;;2.22;45.12
39613;BME280;25303;48.896;13.342;2023-04-07T00:16:28;92795.44;;;2.22;44.87
39613;BME280;25303;48.896;13.342;2023-04-07T00:19:11;92789.53;;;2.21;44.74
39613;BME280;25303;48.896;13.342;2023-04-07T00:21:54;92796.25;;;2.22;44.87
39613;BME280;25303;48.896;13.342;2023-04-07T00:24:38;92791.28;;;2.21;44.74
39613;BME280;25303;48.896;13.342;2023-04-07T00:27:21;92787.13;;;2.20;45.03
39613;BME280;25303;48.896;13.342;2023-04-07T00:30:05;92787.34;;;2.17;44.51
39613;BME280;25303;48.896;13.342;2023-04-07T00:32:48;92790.78;;;2.16;44.81
39613;BME280;25303;48.896;13.342;2023-04-07T00:35:32;92783.38;;;2.12;44.48
39613;BME280;25303;48.896;13.342;2023-04-07T00:38:15;92784.41;;;2.10;44.65
39613;BME280;25303;48.896;13.342;2023-04-07T00:40:59;92782.66;;;2.10;44.76
39613;BME280;25303;48.896;13.342;2023-04-07T00:43:42;92784.41;;;2.10;44.60
39613;BME280;25303;48.896;13.342;2023-04-07T00:46:26;92776.88;;;2.08;44.83
39613;BME280;25303;48.896;13.342;2023-04-07T00:49:10;92782.88;;;2.07;44.95
39613;BME280;25303;48.896;13.342;2023-04-07T00:51:54;92777.00;;;2.07;44.91
39613;BME280;25303;48.896;13.342;2023-04-07T00:54:38;92772.03;;;2.05;45.01
39613;BME280;25303;48.896;13.342;2023-04-07T00:57:22;92772.03;;;2.05;45.16
39613;BME280;25303;48.896;13.342;2023-04-07T01:00:06;92769.59;;;2.04;45.10
39613;BME280;25303;48.896;13.342;2023-04-07T01:02:56;92762.91;;;2.03;45.15
39613;BME280;25303;48.896;13.342;2023-04-07T01:05:45;92763.81;;;2.02;44.95
39613;BME280;25303;48.896;13.342;2023-04-07T01:08:38;92755.59;;;1.98;45.17
39613;BME280;25303;48.896;13.342;2023-04-07T01:11:29;92756.53;;;1.97;44.74
39613;BME280;25303;48.896;13.342;2023-04-07T01:14:16;92753.19;;;1.96;44.89
39613;BME280;25303;48.896;13.342;2023-04-07T01:17:09;92754.91;;;1.96;44.99
39613;BME280;25303;48.896;13.342;2023-04-07T01:19:58;92753.19;;;1.96;44.80
39613;BME280;25303;48.896;13.342;2023-04-07T01:22:46;92749.03;;;1.95;44.92
39613;BME280;25303;48.896;13.342;2023-04-07T01:25:41;92751.56;;;1.95;45.22
39613;BME280;25303;48.896;13.342;2023-04-07T01:28:43;92755.94;;;1.93;45.24
39613;BME280;25303;48.896;13.342;2023-04-07T01:31:33;92747.50;;;1.93;45.10
39613;BME280;25303;48.896;13.342;2023-04-07T01:34:17;92747.63;;;1.91;45.25
39613;BME280;25303;48.896;13.342;2023-04-07T01:37:01;92747.72;;;1.90;45.54
39613;BME280;25303;48.896;13.342;2023-04-07T01:39:44;92746.13;;;1.89;45.52
39613;BME280;25303;48.896;13.342;2023-04-07T01:42:28;92747.81;;;1.88;45.94
39613;BME280;25303;48.896;13.342;2023-04-07T01:45:13;92749.56;;;1.88;45.95
39613;BME280;25303;48.896;13.342;2023-04-07T01:47:59;92741.94;;;1.88;45.65
39613;BME280;25303;48.896;13.342;2023-04-07T01:50:43;92742.03;;;1.86;45.65
39613;BME280;25303;48.896;13.342;2023-04-07T01:53:27;92736.16;;;1.86;45.63
39613;BME280;25303;48.896;13.342;2023-04-07T01:56:10;92738.13;;;1.82;45.53
39613;BME280;25303;48.896;13.342;2023-04-07T01:58:53;92734.97;;;1.78;45.52
39613;BME280;25303;48.896;13.342;2023-04-07T02:01:37;92732.75;;;1.74;45.99
39613;BME280;25303;48.896;13.342;2023-04-07T02:04:27;92732.03;;;1.72;45.76
39613;BME280;25303;48.896;13.342;2023-04-07T02:07:16;92736.41;;;1.70;45.66
39613;BME280;25303;48.896;13.342;2023-04-07T02:10:06;92730.53;;;1.69;45.81
39613;BME280;25303;48.896;13.342;2023-04-07T02:12:50;92731.34;;;1.70;46.14
39613;BME280;25303;48.896;13.342;2023-04-07T02:15:35;92732.25;;;1.69;45.98
39613;BME280;25303;48.896;13.342;2023-04-07T02:18:19;92727.28;;;1.67;45.94
39613;BME280;25303;48.896;13.342;2023-04-07T02:21:06;92728.31;;;1.64;46.20
39613;BME280;25303;48.896;13.342;2023-04-07T02:23:50;92724.03;;;1.65;45.96
39613;BME280;25303;48.896;13.342;2023-04-07T02:26:34;92721.72;;;1.62;46.15
39613;BME280;25303;48.896;13.342;2023-04-07T02:29:17;92730.25;;;1.61;46.31
39613;BME280;25303;48.896;13.342;2023-04-07T02:32:00;92726.19;;;1.58;46.09
39613;BME280;25303;48.896;13.342;2023-04-07T02:34:43;92726.31;;;1.57;46.15
39613;BME280;25303;48.896;13.342;2023-04-07T02:37:27;92726.53;;;1.54;46.07
39613;BME280;25303;48.896;13.342;2023-04-07T02:40:10;92727.44;;;1.52;46.16
39613;BME280;25303;48.896;13.342;2023-04-07T02:42:53;92731.59;;;1.54;46.27
39613;BME280;25303;48.896;13.342;2023-04-07T02:45:36;92720.75;;;1.51;46.13
39613;BME280;25303;48.896;13.342;2023-04-07T02:48:19;92725.00;;;1.51;46.15
39613;BME280;25303;48.896;13.342;2023-04-07T02:51:02;92717.50;;;1.49;46.18
39613;BME280;25303;48.896;13.342;2023-04-07T02:53:46;92716.78;;;1.47;46.13
39613;BME280;25303;48.896;13.342;2023-04-07T02:56:29;92722.06;;;1.44;46.21
39613;BME280;25303;48.896;13.342;2023-04-07T02:59:13;92718.94;;;1.41;46.46
39613;BME280;25303;48.896;13.342;2023-04-07T03:01:57;92716.41;;;1.41;46.42
39613;BME280;25303;48.896;13.342;2023-04-07T03:04:41;92712.94;;;1.42;46.63
39613;BME280;25303;48.896;13.342;2023-04-07T03:07:24;92712.25;;;1.40;46.50
39613;BME280;25303;48.896;13.342;2023-04-07T03:10:12;92710.53;;;1.40;46.57
39613;BME280;25303;48.896;13.342;2023-04-07T03:12:55;92699.44;;;1.41;46.85
39613;BME280;25303;48.896;13.342;2023-04-07T03:15:38;92711.91;;;1.44;46.90
39613;BME280;25303;48.896;13.342;2023-04-07T03:18:21;92705.00;;;1.46;46.80
39613;BME280;25303;48.896;13.342;2023-04-07T03:21:06;92708.97;;;1.50;47.19
39613;BME280;25303;48.896;13.342;2023-04-07T03:23:50;92706.56;;;1.49;46.81
39613;BME280;25303;48.896;13.342;2023-04-07T03:26:35;92704.81;;;1.49;46.67
39613;BME280;25303;48.896;13.342;2023-04-07T03:29:21;92701.34;;;1.50;47.09
39613;BME280;25303;48.896;13.342;2023-04-07T03:32:05;92697.91;;;1.51;47.15
39613;BME280;25303;48.896;13.342;2023-04-07T03:34:48;92700.44;;;1.51;46.98
39613;BME280;25303;48.896;13.342;2023-04-07T03:37:31;92702.28;;;1.49;46.77
39613;BME280;25303;48.896;13.342;2023-04-07T03:40:15;92694.88;;;1.46;46.74
39613;BME280;25303;48.896;13.342;2023-04-07T03:43:00;92692.53;;;1.43;46.93
39613;BME280;25303;48.896;13.342;2023-04-07T03:45:43;92689.28;;;1.41;47.32
39613;BME280;25303;48.896;13.342;2023-04-07T03:48:27;92697.72;;;1.42;46.92
39613;BME280;25303;48.896;13.342;2023-04-07T03:51:17;92698.06;;;1.37;46.91
39613;BME280;25303;48.896;13.342;2023-04-07T03:54:02;92692.34;;;1.33;46.89
39613;BME280;25303;48.896;13.342;2023-04-07T03:56:52;92689.94;;;1.32;46.85
39613;BME280;25303;48.896;13.342;2023-04-07T03:59:38;92695.94;;;1.31;46.84
39613;BME280;25303;48.896;13.342;2023-04-07T04:02:22;92687.59;;;1.29;46.76
39613;BME280;25303;48.896;13.342;2023-04-07T04:05:08;92690.16;;;1.29;46.99
39613;BME280;25303;48.896;13.342;2023-04-07T04:07:51;92687.81;;;1.26;47.02
39613;BME280;25303;48.896;13.342;2023-04-07T04:10:36;92681.03;;;1.26;47.11
39613;BME280;25303;48.896;13.342;2023-04-07T04:13:19;92691.06;;;1.28;47.08
39613;BME280;25303;48.896;13.342;2023-04-07T04:16:05;92693.91;;;1.23;47.16
39613;BME280;25303;48.896;13.342;2023-04-07T04:18:51;92692.78;;;1.27;47.07
39613;BME280;25303;48.896;13.342;2023-04-07T04:21:35;92689.56;;;1.25;47.05
39613;BME280;25303;48.896;13.342;2023-04-07T04:24:18;92689.44;;;1.27;47.33
39613;BME280;25303;48.896;13.342;2023-04-07T04:27:02;92686.09;;;1.26;47.23
39613;BME280;25303;48.896;13.342;2023-04-07T04:29:46;92685.41;;;1.24;47.23
39613;BME280;25303;48.896;13.342;2023-04-07T04:32:33;92682.06;;;1.24;47.21
39613;BME280;25303;48.896;13.342;2023-04-07T04:35:16;92686.09;;;1.26;47.22
39613;BME280;25303;48.896;13.342;2023-04-07T04:38:11;92682.66;;;1.27;47.36
39613;BME280;25303;48.896;13.342;2023-04-07T04:40:59;92677.59;;;1.27;47.37
39613;BME280;25303;48.896;13.342;2023-04-07T04:43:44;92675.75;;;1.29;47.64
39613;BME280;25303;48.896;13.342;2023-04-07T04:46:32;92681.81;;;1.27;47.25
39613;BME280;25303;48.896;13.342;2023-04-07T04:49:17;92674.44;;;1.24;47.61
39613;BME280;25303;48.896;13.342;2023-04-07T04:52:03;92677.78;;;1.24;47.49
39613;BME280;25303;48.896;13.342;2023-04-07T04:54:53;92672.50;;;1.27;47.44
39613;BME280;25303;48.896;13.342;2023-04-07T04:57:37;92679.91;;;1.30;47.52
39613;BME280;25303;48.896;13.342;2023-04-07T05:00:25;92669.78;;;1.30;47.61
39613;BME280;25303;48.896;13.342;2023-04-07T05:03:14;92672.91;;;1.34;47.32
39613;BME280;25303;48.896;13.342;2023-04-07T05:06:05;92671.97;;;1.35;47.16
39613;BME280;25303;48.896;13.342;2023-04-07T05:08:48;92672.78;;;1.35;47.36
39613;BME280;25303;48.896;13.342;2023-04-07T05:11:35;92674.31;;;1.38;47.59
39613;BME280;25303;48.896;13.342;2023-04-07T05:14:18;92667.41;;;1.40;47.50
39613;BME280;25303;48.896;13.342;2023-04-07T05:17:07;92672.25;;;1.43;47.30
39613;BME280;25303;48.896;13.342;2023-04-07T05:19:52;92667.88;;;1.45;47.58
39613;BME280;25303;48.896;13.342;2023-04-07T05:22:47;92662.72;;;1.47;47.47
39613;BME280;25303;48.896;13.342;2023-04-07T05:25:33;92666.03;;;1.47;47.67
39613;BME280;25303;48.896;13.342;2023-04-07T05:28:18;92670.00;;;1.51;47.84
39613;BME280;25303;48.896;13.342;2023-04-07T05:31:02;92653.94;;;1.51;47.74
39613;BME280;25303;48.896;13.342;2023-04-07T05:33:49;92662.19;;;1.55;47.79
39613;BME280;25303;48.896;13.342;2023-04-07T05:36:35;92648.34;;;1.59;47.73
39613;BME280;25303;48.896;13.342;2023-04-07T05:39:20;92661.63;;;1.62;47.71
39613;BME280;25303;48.896;13.342;2023-04-07T05:42:06;92652.88;;;1.66;47.72
39613;BME280;25303;48.896;13.342;2023-04-07T05:44:51;92658.34;;;1.73;47.59
39613;BME280;25303;48.896;13.342;2023-04-07T05:47:37;92655.47;;;1.78;47.66
39613;BME280;25303;48.896;13.342;2023-04-07T05:50:20;92655.94;;;1.83;47.58
39613;BME280;25303;48.896;13.342;2023-04-07T05:53:04;92655.63;;;1.88;47.54
39613;BME280;25303;48.896;13.342;2023-04-07T05:55:48;92653.69;;;1.91;47.51
39613;BME280;25303;48.896;13.342;2023-04-07T05:59:06;92654.97;;;1.97;47.47
39613;BME280;25303;48.896;13.342;2023-04-07T06:01:49;92659.63;;;2.03;47.48
39613;BME280;25303;48.896;13.342;2023-04-07T06:04:33;92664.94;;;2.11;47.55
39613;BME280;25303;48.896;13.342;2023-04-07T06:07:19;92660.22;;;2.18;47.42
39613;BME280;25303;48.896;13.342;2023-04-07T06:10:02;92651.25;;;2.25;47.34
39613;BME280;25303;48.896;13.342;2023-04-07T06:12:46;92654.63;;;2.37;47.26
39613;BME280;25303;48.896;13.342;2023-04-07T06:15:29;92660.66;;;2.48;46.97
39613;BME280;25303;48.896;13.342;2023-04-07T06:18:12;92654.66;;;2.60;46.57
39613;BME280;25303;48.896;13.342;2023-04-07T06:20:55;92658.59;;;2.76;46.58
39613;BME280;25303;48.896;13.342;2023-04-07T06:23:39;92661.97;;;2.87;45.93
39613;BME280;25303;48.896;13.342;2023-04-07T06:26:22;92667.03;;;2.99;45.90
39613;BME280;25303;48.896;13.342;2023-04-07T06:29:07;92655.47;;;3.06;46.03
39613;BME280;25303;48.896;13.342;2023-04-07T06:31:50;92655.97;;;3.11;45.86
39613;BME280;25303;48.896;13.342;2023-04-07T06:34:33;92663.09;;;3.17;45.79
39613;BME280;25303;48.896;13.342;2023-04-07T06:37:16;92664.50;;;3.22;45.61
39613;BME280;25303;48.896;13.342;2023-04-07T06:39:59;92664.72;;;3.30;45.64
39613;BME280;25303;48.896;13.342;2023-04-07T06:42:42;92666.69;;;3.38;45.55
39613;BME280;25303;48.896;13.342;2023-04-07T06:45:33;92660.88;;;3.47;45.56
39613;BME280;25303;48.896;13.342;2023-04-07T06:48:16;92666.28;;;3.54;45.42
39613;BME280;25303;48.896;13.342;2023-04-07T06:50:59;92669.88;;;3.62;45.57
39613;BME280;25303;48.896;13.342;2023-04-07T06:53:42;92673.66;;;3.68;45.65
39613;BME280;25303;48.896;13.342;2023-04-07T06:56:26;92665.41;;;3.76;45.59
39613;BME280;25303;48.896;13.342;2023-04-07T06:59:09;92654.63;;;3.84;45.18
39613;BME280;25303;48.896;13.342;2023-04-07T07:01:53;92659.72;;;3.95;45.11
39613;BME280;25303;48.896;13.342;2023-04-07T07:04:36;92659.66;;;4.06;44.98
39613;BME280;25303;48.896;13.342;2023-04-07T07:07:19;92661.59;;;4.14;44.73
39613;BME280;25303;48.896;13.342;2023-04-07T07:10:02;92665.28;;;4.21;44.42
39613;BME280;25303;48.896;13.342;2023-04-07T07:12:45;92666.16;;;4.32;44.11
39613;BME280;25303;48.896;13.342;2023-04-07T07:15:28;92663.53;;;4.43;44.22
39613;BME280;25303;48.896;13.342;2023-04-07T07:18:12;92661.19;;;4.51;44.16
39613;BME280;25303;48.896;13.342;2023-04-07T07:20:55;92661.09;;;4.63;44.00
39613;BME280;25303;48.896;13.342;2023-04-07T07:23:39;92662.63;;;4.75;44.06
39613;BME280;25303;48.896;13.342;2023-04-07T07:26:21;92671.28;;;4.84;43.67
39613;BME280;25303;48.896;13.342;2023-04-07T07:29:04;92667.28;;;4.91;43.64
39613;BME280;25303;48.896;13.342;2023-04-07T07:31:47;92671.38;;;5.04;43.35
39613;BME280;25303;48.896;13.342;2023-04-07T07:34:32;92673.56;;;5.18;43.19
39613;BME280;25303;48.896;13.342;2023-04-07T07:37:15;92678.72;;;5.28;42.91
39613;BME280;25303;48.896;13.342;2023-04-07T07:39:57;92670.84;;;5.41;42.99
39613;BME280;25303;48.896;13.342;2023-04-07T07:42:40;92674.22;;;5.51;43.07
39613;BME280;25303;48.896;13.342;2023-04-07T07:45:23;92669.38;;;5.58;42.88
39613;BME280;25303;48.896;13.342;2023-04-07T07:48:06;92669.31;;;5.69;42.87
39613;BME280;25303;48.896;13.342;2023-04-07T07:50:50;92673.34;;;5.82;42.56
39613;BME280;25303;48.896;13.342;2023-04-07T07:53:34;92668.38;;;5.90;42.49
39613;BME280;25303;48.896;13.342;2023-04-07T07:56:16;92668.41;;;6.00;42.21
39613;BME280;25303;48.896;13.342;2023-04-07T07:58:59;92675.16;;;6.11;42.11
39613;BME280;25303;48.896;13.342;2023-04-07T08:01:42;92673.38;;;6.21;41.84
39613;BME280;25303;48.896;13.342;2023-04-07T08:04:25;92671.25;;;6.36;41.94
39613;BME280;25303;48.896;13.342;2023-04-07T08:07:10;92669.63;;;6.45;41.73
39613;BME280;25303;48.896;13.342;2023-04-07T08:09:53;92669.75;;;6.53;41.66
39613;BME280;25303;48.896;13.342;2023-04-07T08:12:35;92667.97;;;6.63;41.42
39613;BME280;25303;48.896;13.342;2023-04-07T08:15:18;92672.56;;;6.69;41.51
39613;BME280;25303;48.896;13.342;2023-04-07T08:18:02;92670.09;;;6.78;41.70
39613;BME280;25303;48.896;13.342;2023-04-07T08:20:47;92672.50;;;6.89;41.15
39613;BME280;25303;48.896;13.342;2023-04-07T08:23:31;92673.41;;;6.98;41.23
39613;BME280;25303;48.896;13.342;2023-04-07T08:26:14;92671.94;;;7.05;41.30
39613;BME280;25303;48.896;13.342;2023-04-07T08:28:57;92677.28;;;7.12;41.02
39613;BME280;25303;48.896;13.342;2023-04-07T08:31:40;92669.59;;;7.12;39.54
39613;BME280;25303;48.896;13.342;2023-04-07T08:34:23;92670.41;;;7.12;39.77
39613;BME280;25303;48.896;13.342;2023-04-07T08:37:05;92667.69;;;7.24;39.67
39613;BME280;25303;48.896;13.342;2023-04-07T08:39:51;92661.97;;;7.30;38.92
39613;BME280;25303;48.896;13.342;2023-04-07T08:42:39;92668.31;;;7.36;39.25
39613;BME280;25303;48.896;13.342;2023-04-07T08:45:24;92659.78;;;7.45;39.60
39613;BME280;25303;48.896;13.342;2023-04-07T08:48:08;92660.00;;;7.52;37.96
39613;BME280;25303;48.896;13.342;2023-04-07T08:50:53;92660.84;;;7.70;39.42
39613;BME280;25303;48.896;13.342;2023-04-07T08:53:40;92657.78;;;7.85;39.03
39613;BME280;25303;48.896;13.342;2023-04-07T08:56:26;92658.09;;;8.00;38.99
39613;BME280;25303;48.896;13.342;2023-04-07T08:59:11;92665.28;;;8.14;38.45
39613;BME280;25303;48.896;13.342;2023-04-07T09:01:54;92658.69;;;8.30;38.26
39613;BME280;25303;48.896;13.342;2023-04-07T09:04:37;92656.78;;;8.50;38.10
39613;BME280;25303;48.896;13.342;2023-04-07T09:07:21;92655.25;;;8.57;37.32
39613;BME280;25303;48.896;13.342;2023-04-07T09:10:05;92664.16;;;8.71;38.11
39613;BME280;25303;48.896;13.342;2023-04-07T09:12:50;92655.91;;;8.86;37.97
39613;BME280;25303;48.896;13.342;2023-04-07T09:15:33;92657.47;;;8.78;35.08
39613;BME280;25303;48.896;13.342;2023-04-07T09:18:19;92652.63;;;9.02;36.95
39613;BME280;25303;48.896;13.342;2023-04-07T09:21:03;92651.59;;;9.21;37.31
39613;BME280;25303;48.896;13.342;2023-04-07T09:23:48;92648.97;;;9.47;37.69
39613;BME280;25303;48.896;13.342;2023-04-07T09:26:31;92648.44;;;9.70;37.04
39613;BME280;25303;48.896;13.342;2023-04-07T09:29:19;92645.69;;;9.63;35.89
39613;BME280;25303;48.896;13.342;2023-04-07T09:32:03;92642.84;;;9.91;36.62
39613;BME280;25303;48.896;13.342;2023-04-07T09:34:45;92642.44;;;10.21;36.45
39613;BME280;25303;48.896;13.342;2023-04-07T09:37:29;92630.53;;;10.44;36.25
39613;BME280;25303;48.896;13.342;2023-04-07T09:40:24;92629.28;;;10.57;33.20
39613;BME280;25303;48.896;13.342;2023-04-07T09:43:14;92629.44;;;10.63;33.85
39613;BME280;25303;48.896;13.342;2023-04-07T09:46:07;92625.06;;;10.81;34.00
39613;BME280;25303;48.896;13.342;2023-04-07T09:49:00;92628.75;;;10.94;33.87
39613;BME280;25303;48.896;13.342;2023-04-07T09:51:53;92628.69;;;11.11;32.97
39613;BME280;25303;48.896;13.342;2023-04-07T09:54:37;92616.88;;;11.33;34.44
39613;BME280;25303;48.896;13.342;2023-04-07T09:57:22;92612.09;;;11.62;34.51
39613;BME280;25303;48.896;13.342;2023-04-07T10:00:06;92611.50;;;11.83;34.02
39613;BME280;25303;48.896;13.342;2023-04-07T10:02:55;92601.50;;;12.11;34.29
39613;BME280;25303;48.896;13.342;2023-04-07T10:05:39;92598.53;;;12.23;33.29
39613;BME280;25303;48.896;13.342;2023-04-07T10:08:23;92601.59;;;12.41;33.15
39613;BME280;25303;48.896;13.342;2023-04-07T10:11:06;92594.50;;;12.43;32.61
39613;BME280;25303;48.896;13.342;2023-04-07T10:13:49;92601.78;;;12.40;32.07
39613;BME280;25303;48.896;13.342;2023-04-07T10:16:33;92592.75;;;12.59;32.40
39613;BME280;25303;48.896;13.342;2023-04-07T10:19:18;92589.19;;;12.60;32.10
39613;BME280;25303;48.896;13.342;2023-04-07T10:22:02;92590.59;;;12.63;31.80
39613;BME280;25303;48.896;13.342;2023-04-07T10:24:52;92576.72;;;12.64;31.01
39613;BME280;25303;48.896;13.342;2023-04-07T10:27:39;92583.44;;;12.88;31.35
39613;BME280;25303;48.896;13.342;2023-04-07T10:30:31;92589.94;;;12.99;31.16
39613;BME280;25303;48.896;13.342;2023-04-07T10:33:15;92589.41;;;13.18;31.48
39613;BME280;25303;48.896;13.342;2023-04-07T10:36:04;92587.63;;;13.34;30.93
39613;BME280;25303;48.896;13.342;2023-04-07T10:39:18;92580.06;;;13.47;29.98
39613;BME280;25303;48.896;13.342;2023-04-07T10:42:01;92574.78;;;13.56;30.40
39613;BME280;25303;48.896;13.342;2023-04-07T10:44:45;92575.09;;;13.67;30.13
39613;BME280;25303;48.896;13.342;2023-04-07T10:47:28;92577.25;;;13.79;28.33
39613;BME280;25303;48.896;13.342;2023-04-07T10:50:18;92573.13;;;13.85;29.81
39613;BME280;25303;48.896;13.342;2023-04-07T10:53:07;92566.22;;;14.13;29.63
39613;BME280;25303;48.896;13.342;2023-04-07T10:55:53;92577.63;;;14.19;28.11
39613;BME280;25303;48.896;13.342;2023-04-07T10:58:37;92568.50;;;14.02;29.27
39613;BME280;25303;48.896;13.342;2023-04-07T11:01:20;92579.59;;;14.17;29.55
39613;BME280;25303;48.896;13.342;2023-04-07T11:04:03;92574.66;;;14.22;29.44
39613;BME280;25303;48.896;13.342;2023-04-07T11:06:48;92567.81;;;14.36;29.38
39613;BME280;25303;48.896;13.342;2023-04-07T11:09:32;92562.47;;;14.66;29.27
39613;BME280;25303;48.896;13.342;2023-04-07T11:12:21;92562.63;;;14.86;28.99
39613;BME280;25303;48.896;13.342;2023-04-07T11:15:18;92565.91;;;15.02;28.05
39613;BME280;25303;48.896;13.342;2023-04-07T11:18:13;92562.41;;;14.59;26.96
39613;BME280;25303;48.896;13.342;2023-04-07T11:20:57;92560.31;;;14.48;28.51
39613;BME280;25303;48.896;13.342;2023-04-07T11:23:41;92554.78;;;14.51;28.48
39613;BME280;25303;48.896;13.342;2023-04-07T11:26:26;92555.75;;;14.50;28.34
39613;BME280;25303;48.896;13.342;2023-04-07T11:29:10;92554.78;;;14.51;28.38
39613;BME280;25303;48.896;13.342;2023-04-07T11:31:54;92552.69;;;14.62;28.50
39613;BME280;25303;48.896;13.342;2023-04-07T11:34:39;92561.34;;;14.47;27.38
39613;BME280;25303;48.896;13.342;2023-04-07T11:37:24;92559.69;;;14.39;27.89
39613;BME280;25303;48.896;13.342;2023-04-07T11:40:10;92553.72;;;14.46;27.88
39613;BME280;25303;48.896;13.342;2023-04-07T11:42:56;92556.75;;;14.49;27.67
39613;BME280;25303;48.896;13.342;2023-04-07T11:45:39;92557.81;;;14.55;27.63
39613;BME280;25303;48.896;13.342;2023-04-07T11:48:27;92551.69;;;14.63;27.93
39613;BME280;25303;48.896;13.342;2023-04-07T11:51:15;92548.34;;;14.69;27.58
39613;BME280;25303;48.896;13.342;2023-04-07T11:53:58;92543.50;;;14.66;28.00
39613;BME280;25303;48.896;13.342;2023-04-07T11:56:43;92542.25;;;14.83;28.21
39613;BME280;25303;48.896;13.342;2023-04-07T11:59:28;92546.50;;;14.91;27.80
39613;BME280;25303;48.896;13.342;2023-04-07T12:02:29;92543.91;;;14.91;27.10
39613;BME280;25303;48.896;13.342;2023-04-07T12:05:13;92538.50;;;14.86;27.42
39613;BME280;25303;48.896;13.342;2023-04-07T12:07:56;92540.25;;;14.57;27.43
39613;BME280;25303;48.896;13.342;2023-04-07T12:10:39;92547.25;;;14.56;27.51
39613;BME280;25303;48.896;13.342;2023-04-07T12:13:22;92537.63;;;14.50;27.53
39613;BME280;25303;48.896;13.342;2023-04-07T12:16:06;92541.44;;;14.54;27.89
39613;BME280;25303;48.896;13.342;2023-04-07T12:18:50;92539.31;;;14.65;27.70
39613;BME280;25303;48.896;13.342;2023-04-07T12:21:33;92535.69;;;14.81;27.51
39613;BME280;25303;48.896;13.342;2023-04-07T12:24:16;92529.34;;;14.90;27.74
39613;BME280;25303;48.896;13.342;2023-04-07T12:26:59;92531.06;;;15.11;27.52
39613;BME280;25303;48.896;13.342;2023-04-07T12:29:43;92535.69;;;15.23;27.40
39613;BME280;25303;48.896;13.342;2023-04-07T12:32:27;92532.72;;;15.26;27.15
39613;BME280;25303;48.896;13.342;2023-04-07T12:35:10;92526.91;;;14.82;25.91
39613;BME280;25303;48.896;13.342;2023-04-07T12:37:53;92529.63;;;14.73;27.39
39613;BME280;25303;48.896;13.342;2023-04-07T12:40:37;92528.91;;;14.80;27.37
39613;BME280;25303;48.896;13.342;2023-04-07T12:43:20;92527.41;;;14.99;27.62
39613;BME280;25303;48.896;13.342;2023-04-07T12:46:03;92518.56;;;15.28;27.56
39613;BME280;25303;48.896;13.342;2023-04-07T12:48:47;92515.28;;;15.55;27.43
39613;BME280;25303;48.896;13.342;2023-04-07T12:51:32;92520.31;;;15.76;27.20
39613;BME280;25303;48.896;13.342;2023-04-07T12:54:15;92520.34;;;15.83;26.42
39613;BME280;25303;48.896;13.342;2023-04-07T12:56:57;92528.91;;;15.84;26.60
39613;BME280;25303;48.896;13.342;2023-04-07T12:59:40;92520.38;;;15.90;26.79
39613;BME280;25303;48.896;13.342;2023-04-07T13:02:23;92517.59;;;15.98;26.35
39613;BME280;25303;48.896;13.342;2023-04-07T13:05:08;92515.19;;;15.97;26.10
39613;BME280;25303;48.896;13.342;2023-04-07T13:07:51;92507.19;;;15.91;26.10
39613;BME280;25303;48.896;13.342;2023-04-07T13:10:34;92520.19;;;15.98;26.41
39613;BME280;25303;48.896;13.342;2023-04-07T13:13:17;92517.78;;;16.03;26.53
39613;BME280;25303;48.896;13.342;2023-04-07T13:16:00;92516.19;;;15.95;26.45
39613;BME280;25303;48.896;13.342;2023-04-07T13:18:43;92516.91;;;15.76;26.04
39613;BME280;25303;48.896;13.342;2023-04-07T13:21:28;92522.03;;;15.42;26.13
39613;BME280;25303;48.896;13.342;2023-04-07T13:24:13;92520.84;;;15.03;26.35
39613;BME280;25303;48.896;13.342;2023-04-07T13:26:57;92516.34;;;14.83;26.71
39613;BME280;25303;48.896;13.342;2023-04-07T13:29:40;92509.50;;;14.69;26.95
39613;BME280;25303;48.896;13.342;2023-04-07T13:32:22;92509.78;;;14.59;27.37
39613;BME280;25303;48.896;13.342;2023-04-07T13:35:06;92505.22;;;14.61;27.51
39613;BME280;25303;48.896;13.342;2023-04-07T13:37:51;92508.44;;;14.63;27.21
39613;BME280;25303;48.896;13.342;2023-04-07T13:40:34;92511.56;;;14.52;27.21
39613;BME280;25303;48.896;13.342;2023-04-07T13:43:17;92507.28;;;14.37;27.30
39613;BME280;25303;48.896;13.342;2023-04-07T13:46:00;92506.78;;;14.27;27.32
39613;BME280;25303;48.896;13.342;2023-04-07T13:48:43;92509.31;;;14.20;27.35
39613;BME280;25303;48.896;13.342;2023-04-07T13:51:26;92507.81;;;14.04;27.41
39613;BME280;25303;48.896;13.342;2023-04-07T13:54:11;92509.84;;;13.87;27.46
39613;BME280;25303;48.896;13.342;2023-04-07T13:56:54;92506.75;;;13.77;27.64
39613;BME280;25303;48.896;13.342;2023-04-07T13:59:36;92502.94;;;13.73;27.94
39613;BME280;25303;48.896;13.342;2023-04-07T14:02:20;92506.88;;;13.68;28.14
39613;BME280;25303;48.896;13.342;2023-04-07T14:05:03;92513.03;;;13.67;28.45
39613;BME280;25303;48.896;13.342;2023-04-07T14:07:46;92507.13;;;13.74;28.46
39613;BME280;25303;48.896;13.342;2023-04-07T14:10:31;92509.09;;;13.72;28.24
39613;BME280;25303;48.896;13.342;2023-04-07T14:13:15;92511.69;;;13.72;28.57
39613;BME280;25303;48.896;13.342;2023-04-07T14:15:58;92505.31;;;13.74;28.88
39613;BME280;25303;48.896;13.342;2023-04-07T14:18:41;92505.94;;;13.76;28.82
39613;BME280;25303;48.896;13.342;2023-04-07T14:21:23;92505.94;;;13.76;28.81
39613;BME280;25303;48.896;13.342;2023-04-07T14:24:07;92507.81;;;13.82;28.92
39613;BME280;25303;48.896;13.342;2023-04-07T14:26:52;92494.94;;;13.89;28.71
39613;BME280;25303;48.896;13.342;2023-04-07T14:29:36;92485.56;;;13.88;29.03